sensor_id;sensor_type;location;lat;lon;timestamp;pressure;altitude;pressure_sealevel;temperature;humidity
40850;BME280;26571;41.610;25.380;2023-02-19T00:01:38;98685.91;;;10.04;67.00
40850;BME280;26571;41.610;25.380;2023-02-19T00:04:06;98688.88;;;10.09;66.97
40850;BME280;26571;41.610;25.380;2023-02-19T00:06:33;98686.13;;;10.10;67.29
40850;BME280;26571;41.610;25.380;2023-02-19T00:09:00;98680.03;;;10.10;67.06
40850;BME280;26571;41.610;25.380;2023-02-19T00:11:28;98655.25;;;9.87;67.13
40850;BME280;26571;41.610;25.380;2023-02-19T00:13:55;98667.13;;;9.99;67.25
40850;BME280;26571;41.610;25.380;2023-02-19T00:16:22;98664.22;;;10.02;67.28
40850;BME280;26571;41.610;25.380;2023-02-19T00:18:48;98672.09;;;10.02;67.16
40850;BME280;26571;41.610;25.380;2023-02-19T00:21:15;98676.00;;;9.98;66.86
40850;BME280;26571;41.610;25.380;2023-02-19T00:23:40;98669.75;;;9.91;67.45
40850;BME280;26571;41.610;25.380;2023-02-19T00:26:11;98674.78;;;9.84;68.18
40850;BME280;26571;41.610;25.380;2023-02-19T00:28:37;98667.06;;;9.82;68.40
40850;BME280;26571;41.610;25.380;2023-02-19T00:33:30;98656.84;;;9.79;67.30
40850;BME280;26571;41.610;25.380;2023-02-19T00:35:59;98649.09;;;9.70;67.44
40850;BME280;26571;41.610;25.380;2023-02-19T00:38:25;98659.44;;;9.71;68.00
40850;BME280;26571;41.610;25.380;2023-02-19T00:40:50;98645.94;;;9.66;68.27
40850;BME280;26571;41.610;25.380;2023-02-19T00:43:15;98630.16;;;9.66;68.16
40850;BME280;26571;41.610;25.380;2023-02-19T00:45:41;98631.16;;;9.65;68.14
40850;BME280;26571;41.610;25.380;2023-02-19T00:48:06;98641.50;;;9.67;68.16
40850;BME280;26571;41.610;25.380;2023-02-19T00:50:32;98634.50;;;9.75;67.58
40850;BME280;26571;41.610;25.380;2023-02-19T00:52:57;98623.94;;;9.67;68.02
40850;BME280;26571;41.610;25.380;2023-02-19T00:55:22;98627.22;;;9.69;67.63
40850;BME280;26571;41.610;25.380;2023-02-19T00:57:48;98630.69;;;9.70;67.27
40850;BME280;26571;41.610;25.380;2023-02-19T01:00:13;98631.56;;;9.52;68.67
40850;BME280;26571;41.610;25.380;2023-02-19T01:02:39;98617.75;;;9.50;68.61
40850;BME280;26571;41.610;25.380;2023-02-19T01:05:04;98617.66;;;9.60;68.69
40850;BME280;26571;41.610;25.380;2023-02-19T01:07:30;98621.59;;;9.64;68.57
40850;BME280;26571;41.610;25.380;2023-02-19T01:09:55;98621.41;;;9.57;66.88
40850;BME280;26571;41.610;25.380;2023-02-19T01:12:21;98617.88;;;9.49;68.50
40850;BME280;26571;41.610;25.380;2023-02-19T01:14:48;98598.41;;;9.33;68.35
40850;BME280;26571;41.610;25.380;2023-02-19T01:17:13;98606.00;;;9.37;69.31
40850;BME280;26571;41.610;25.380;2023-02-19T01:19:39;98598.53;;;9.50;68.78
40850;BME280;26571;41.610;25.380;2023-02-19T01:22:04;98598.56;;;9.58;68.81
40850;BME280;26571;41.610;25.380;2023-02-19T01:24:30;98592.78;;;9.54;68.29
40850;BME280;26571;41.610;25.380;2023-02-19T01:26:55;98582.97;;;9.56;67.74
40850;BME280;26571;41.610;25.380;2023-02-19T01:29:20;98582.09;;;9.48;67.83
40850;BME280;26571;41.610;25.380;2023-02-19T01:31:46;98585.63;;;9.39;67.62
40850;BME280;26571;41.610;25.380;2023-02-19T01:34:11;98589.56;;;9.35;66.62
40850;BME280;26571;41.610;25.380;2023-02-19T01:36:37;98582.75;;;9.24;67.76
40850;BME280;26571;41.610;25.380;2023-02-19T01:39:05;98568.16;;;9.21;67.88
40850;BME280;26571;41.610;25.380;2023-02-19T01:41:33;98550.13;;;9.26;68.64
40850;BME280;26571;41.610;25.380;2023-02-19T01:44:56;98556.09;;;9.37;69.57
40850;BME280;26571;41.610;25.380;2023-02-19T01:46:51;98562.06;;;9.47;69.17
40850;BME280;26571;41.610;25.380;2023-02-19T01:49:30;98556.50;;;9.50;70.04
40850;BME280;26571;41.610;25.380;2023-02-19T01:52:02;98556.72;;;9.65;70.22
40850;BME280;26571;41.610;25.380;2023-02-19T01:54:31;98563.78;;;9.64;70.10
40850;BME280;26571;41.610;25.380;2023-02-19T01:56:58;98539.88;;;9.49;69.59
40850;BME280;26571;41.610;25.380;2023-02-19T01:59:26;98527.72;;;9.40;68.38
40850;BME280;26571;41.610;25.380;2023-02-19T02:01:51;98563.13;;;9.62;67.51
40850;BME280;26571;41.610;25.380;2023-02-19T02:04:17;98557.81;;;9.54;68.01
40850;BME280;26571;41.610;25.380;2023-02-19T02:06:49;98566.84;;;9.51;65.57
40850;BME280;26571;41.610;25.380;2023-02-19T02:09:17;98556.28;;;9.17;66.28
40850;BME280;26571;41.610;25.380;2023-02-19T02:12:02;98565.78;;;9.10;66.02
40850;BME280;26571;41.610;25.380;2023-02-19T02:14:30;98563.38;;;8.99;65.64
40850;BME280;26571;41.610;25.380;2023-02-19T02:17:25;98559.28;;;8.96;65.03
40850;BME280;26571;41.610;25.380;2023-02-19T02:22:41;98565.81;;;8.74;65.34
40850;BME280;26571;41.610;25.380;2023-02-19T02:30:35;98543.84;;;8.40;66.07
40850;BME280;26571;41.610;25.380;2023-02-19T02:35:52;98561.31;;;8.49;67.43
40850;BME280;26571;41.610;25.380;2023-02-19T02:38:20;98566.66;;;8.57;67.04
40850;BME280;26571;41.610;25.380;2023-02-19T02:40:48;98547.53;;;8.47;66.91
40850;BME280;26571;41.610;25.380;2023-02-19T02:43:14;98524.00;;;8.37;67.40
40850;BME280;26571;41.610;25.380;2023-02-19T02:45:39;98548.28;;;8.57;66.70
40850;BME280;26571;41.610;25.380;2023-02-19T02:48:29;98549.25;;;8.74;65.38
40850;BME280;26571;41.610;25.380;2023-02-19T02:51:08;98559.53;;;8.67;66.07
40850;BME280;26571;41.610;25.380;2023-02-19T02:53:42;98557.81;;;8.76;65.47
40850;BME280;26571;41.610;25.380;2023-02-19T02:56:27;98547.38;;;8.66;66.84
40850;BME280;26571;41.610;25.380;2023-02-19T02:58:55;98562.53;;;8.72;66.83
40850;BME280;26571;41.610;25.380;2023-02-19T03:01:26;98565.06;;;8.82;67.35
40850;BME280;26571;41.610;25.380;2023-02-19T03:04:18;98556.03;;;8.85;67.03
40850;BME280;26571;41.610;25.380;2023-02-19T03:06:46;98558.66;;;8.85;67.91
40850;BME280;26571;41.610;25.380;2023-02-19T03:12:13;98565.72;;;8.84;68.80
40850;BME280;26571;41.610;25.380;2023-02-19T03:15:02;98567.22;;;8.87;68.27
40850;BME280;26571;41.610;25.380;2023-02-19T03:17:50;98570.03;;;8.85;67.62
40850;BME280;26571;41.610;25.380;2023-02-19T03:20:39;98568.31;;;8.76;67.58
40850;BME280;26571;41.610;25.380;2023-02-19T03:23:08;98569.72;;;8.70;66.96
40850;BME280;26571;41.610;25.380;2023-02-19T03:25:35;98564.78;;;8.67;67.66
40850;BME280;26571;41.610;25.380;2023-02-19T03:28:23;98568.59;;;8.73;68.10
40850;BME280;26571;41.610;25.380;2023-02-19T03:31:13;98570.75;;;8.77;67.22
40850;BME280;26571;41.610;25.380;2023-02-19T03:33:42;98564.69;;;8.59;67.34
40850;BME280;26571;41.610;25.380;2023-02-19T03:36:11;98571.75;;;8.76;67.58
40850;BME280;26571;41.610;25.380;2023-02-19T03:38:51;98579.16;;;8.63;68.54
40850;BME280;26571;41.610;25.380;2023-02-19T03:41:32;98583.59;;;8.63;67.81
40850;BME280;26571;41.610;25.380;2023-02-19T03:49:58;98585.75;;;8.67;67.68
40850;BME280;26571;41.610;25.380;2023-02-19T03:57:56;98577.69;;;8.61;67.19
40850;BME280;26571;41.610;25.380;2023-02-19T04:00:29;98586.75;;;8.66;67.15
40850;BME280;26571;41.610;25.380;2023-02-19T04:05:37;98587.41;;;8.68;66.89
40850;BME280;26571;41.610;25.380;2023-02-19T04:08:10;98600.16;;;8.63;67.94
40850;BME280;26571;41.610;25.380;2023-02-19T04:10:38;98600.59;;;8.59;68.39
40850;BME280;26571;41.610;25.380;2023-02-19T04:13:11;98608.84;;;8.46;69.57
40850;BME280;26571;41.610;25.380;2023-02-19T04:15:41;98603.63;;;8.46;69.25
40850;BME280;26571;41.610;25.380;2023-02-19T04:18:13;98603.91;;;8.43;70.06
40850;BME280;26571;41.610;25.380;2023-02-19T04:20:43;98603.44;;;8.47;70.51
40850;BME280;26571;41.610;25.380;2023-02-19T04:23:08;98578.66;;;8.42;69.98
40850;BME280;26571;41.610;25.380;2023-02-19T04:25:36;98583.38;;;8.56;69.56
40850;BME280;26571;41.610;25.380;2023-02-19T04:28:02;98581.19;;;8.51;69.62
40850;BME280;26571;41.610;25.380;2023-02-19T04:30:28;98584.34;;;8.73;68.71
40850;BME280;26571;41.610;25.380;2023-02-19T04:32:53;98582.38;;;8.75;68.65
40850;BME280;26571;41.610;25.380;2023-02-19T04:35:19;98594.75;;;8.83;67.89
40850;BME280;26571;41.610;25.380;2023-02-19T04:37:44;98590.34;;;8.83;68.21
40850;BME280;26571;41.610;25.380;2023-02-19T04:40:10;98628.28;;;8.71;68.04
40850;BME280;26571;41.610;25.380;2023-02-19T04:42:36;98591.00;;;8.67;69.01
40850;BME280;26571;41.610;25.380;2023-02-19T04:45:01;98601.81;;;8.46;69.63
40850;BME280;26571;41.610;25.380;2023-02-19T04:47:26;98608.47;;;8.41;70.56
40850;BME280;26571;41.610;25.380;2023-02-19T04:49:52;98583.38;;;8.28;70.50
40850;BME280;26571;41.610;25.380;2023-02-19T04:52:17;98610.50;;;8.47;70.10
40850;BME280;26571;41.610;25.380;2023-02-19T04:54:43;98597.56;;;8.36;70.08
40850;BME280;26571;41.610;25.380;2023-02-19T04:57:08;98617.09;;;8.51;67.35
40850;BME280;26571;41.610;25.380;2023-02-19T04:59:33;98626.72;;;8.33;69.01
40850;BME280;26571;41.610;25.380;2023-02-19T05:01:59;98628.88;;;8.47;67.96
40850;BME280;26571;41.610;25.380;2023-02-19T05:04:24;98624.88;;;8.43;68.05
40850;BME280;26571;41.610;25.380;2023-02-19T05:06:50;98623.38;;;8.40;68.37
40850;BME280;26571;41.610;25.380;2023-02-19T05:09:15;98631.50;;;8.47;66.91
40850;BME280;26571;41.610;25.380;2023-02-19T05:11:40;98639.59;;;8.53;66.88
40850;BME280;26571;41.610;25.380;2023-02-19T05:14:06;98654.13;;;8.48;66.95
40850;BME280;26571;41.610;25.380;2023-02-19T05:16:32;98603.16;;;8.23;67.92
40850;BME280;26571;41.610;25.380;2023-02-19T05:18:58;98653.69;;;8.52;66.09
40850;BME280;26571;41.610;25.380;2023-02-19T05:21:23;98638.75;;;8.53;65.67
40850;BME280;26571;41.610;25.380;2023-02-19T05:23:49;98638.66;;;8.45;67.36
40850;BME280;26571;41.610;25.380;2023-02-19T05:26:20;98663.13;;;8.63;65.76
40850;BME280;26571;41.610;25.380;2023-02-19T05:28:49;98650.69;;;8.47;66.70
40850;BME280;26571;41.610;25.380;2023-02-19T05:31:15;98667.28;;;8.66;66.04
40850;BME280;26571;41.610;25.380;2023-02-19T05:33:41;98675.97;;;8.66;65.50
40850;BME280;26571;41.610;25.380;2023-02-19T05:36:12;98678.00;;;8.72;65.31
40850;BME280;26571;41.610;25.380;2023-02-19T05:38:39;98651.28;;;8.59;65.02
40850;BME280;26571;41.610;25.380;2023-02-19T05:43:40;98693.16;;;8.78;64.15
40850;BME280;26571;41.610;25.380;2023-02-19T05:46:07;98707.63;;;8.83;65.00
40850;BME280;26571;41.610;25.380;2023-02-19T05:48:32;98708.56;;;8.91;63.66
40850;BME280;26571;41.610;25.380;2023-02-19T05:51:06;98711.63;;;8.87;63.02
40850;BME280;26571;41.610;25.380;2023-02-19T05:53:32;98719.06;;;8.91;63.65
40850;BME280;26571;41.610;25.380;2023-02-19T05:55:57;98717.94;;;9.12;63.54
40850;BME280;26571;41.610;25.380;2023-02-19T05:58:23;98663.06;;;9.09;62.43
40850;BME280;26571;41.610;25.380;2023-02-19T06:00:49;98725.19;;;9.79;61.11
40850;BME280;26571;41.610;25.380;2023-02-19T06:03:14;98721.59;;;10.32;60.20
40850;BME280;26571;41.610;25.380;2023-02-19T06:05:40;98746.13;;;10.83;57.90
40850;BME280;26571;41.610;25.380;2023-02-19T06:08:05;98727.97;;;11.31;55.69
40850;BME280;26571;41.610;25.380;2023-02-19T06:10:31;98678.38;;;11.59;55.07
40850;BME280;26571;41.610;25.380;2023-02-19T06:12:56;98731.66;;;12.34;53.25
40850;BME280;26571;41.610;25.380;2023-02-19T06:15:22;98739.69;;;12.88;51.22
40850;BME280;26571;41.610;25.380;2023-02-19T06:17:48;98715.75;;;13.13;50.23
40850;BME280;26571;41.610;25.380;2023-02-19T06:20:13;98741.25;;;13.52;49.29
40850;BME280;26571;41.610;25.380;2023-02-19T06:22:39;98737.75;;;14.12;48.19
40850;BME280;26571;41.610;25.380;2023-02-19T06:25:05;98731.94;;;14.61;47.07
40850;BME280;26571;41.610;25.380;2023-02-19T06:27:32;98734.03;;;15.02;45.69
40850;BME280;26571;41.610;25.380;2023-02-19T06:29:57;98733.94;;;15.31;45.10
40850;BME280;26571;41.610;25.380;2023-02-19T06:32:23;98743.06;;;15.65;44.83
40850;BME280;26571;41.610;25.380;2023-02-19T06:34:49;98721.16;;;15.84;43.70
40850;BME280;26571;41.610;25.380;2023-02-19T06:37:14;98735.38;;;16.33;43.35
40850;BME280;26571;41.610;25.380;2023-02-19T06:39:39;98737.00;;;16.68;42.24
40850;BME280;26571;41.610;25.380;2023-02-19T06:42:05;98729.03;;;17.23;41.17
40850;BME280;26571;41.610;25.380;2023-02-19T06:44:30;98726.63;;;17.61;40.74
40850;BME280;26571;41.610;25.380;2023-02-19T06:46:56;98716.59;;;17.83;40.13
40850;BME280;26571;41.610;25.380;2023-02-19T06:49:21;98733.34;;;18.30;39.35
40850;BME280;26571;41.610;25.380;2023-02-19T06:51:47;98729.41;;;18.39;38.78
40850;BME280;26571;41.610;25.380;2023-02-19T06:54:12;98729.06;;;18.22;38.89
40850;BME280;26571;41.610;25.380;2023-02-19T06:56:39;98728.19;;;18.42;38.25
40850;BME280;26571;41.610;25.380;2023-02-19T06:59:13;98727.72;;;18.58;38.00
40850;BME280;26571;41.610;25.380;2023-02-19T07:01:41;98726.47;;;19.12;37.76
40850;BME280;26571;41.610;25.380;2023-02-19T07:04:07;98733.09;;;19.73;36.59
40850;BME280;26571;41.610;25.380;2023-02-19T07:06:33;98737.81;;;20.21;35.73
40850;BME280;26571;41.610;25.380;2023-02-19T07:09:00;98700.97;;;20.41;34.97
40850;BME280;26571;41.610;25.380;2023-02-19T07:11:29;98723.28;;;20.72;34.76
40850;BME280;26571;41.610;25.380;2023-02-19T07:13:58;98720.84;;;21.00;34.64
40850;BME280;26571;41.610;25.380;2023-02-19T07:16:25;98708.00;;;21.21;34.07
40850;BME280;26571;41.610;25.380;2023-02-19T07:18:50;98719.50;;;21.39;33.86
40850;BME280;26571;41.610;25.380;2023-02-19T07:21:17;98725.34;;;21.48;34.08
40850;BME280;26571;41.610;25.380;2023-02-19T07:23:43;98711.81;;;21.43;34.57
40850;BME280;26571;41.610;25.380;2023-02-19T07:26:13;98732.88;;;21.93;34.00
40850;BME280;26571;41.610;25.380;2023-02-19T07:28:40;98729.28;;;22.23;32.93
40850;BME280;26571;41.610;25.380;2023-02-19T07:31:06;98722.03;;;22.35;32.31
40850;BME280;26571;41.610;25.380;2023-02-19T07:33:31;98711.78;;;22.08;33.48
40850;BME280;26571;41.610;25.380;2023-02-19T07:35:57;98718.09;;;22.26;33.41
40850;BME280;26571;41.610;25.380;2023-02-19T07:38:23;98723.22;;;22.39;32.76
40850;BME280;26571;41.610;25.380;2023-02-19T07:40:57;98690.47;;;22.13;33.09
40850;BME280;26571;41.610;25.380;2023-02-19T07:43:24;98713.06;;;21.94;33.77
40850;BME280;26571;41.610;25.380;2023-02-19T07:45:49;98720.03;;;21.72;33.27
40850;BME280;26571;41.610;25.380;2023-02-19T07:48:15;98720.38;;;21.63;34.32
40850;BME280;26571;41.610;25.380;2023-02-19T07:50:41;98715.47;;;21.60;34.12
40850;BME280;26571;41.610;25.380;2023-02-19T07:53:06;98701.22;;;21.48;34.48
40850;BME280;26571;41.610;25.380;2023-02-19T07:55:33;98706.00;;;21.34;34.61
40850;BME280;26571;41.610;25.380;2023-02-19T07:57:59;98702.16;;;21.42;35.01
40850;BME280;26571;41.610;25.380;2023-02-19T08:00:25;98696.88;;;21.89;34.52
40850;BME280;26571;41.610;25.380;2023-02-19T08:02:51;98674.00;;;21.63;33.47
40850;BME280;26571;41.610;25.380;2023-02-19T08:05:26;98699.03;;;21.57;34.28
40850;BME280;26571;41.610;25.380;2023-02-19T08:07:52;98694.47;;;21.34;33.80
40850;BME280;26571;41.610;25.380;2023-02-19T08:10:18;98691.25;;;21.25;34.27
40850;BME280;26571;41.610;25.380;2023-02-19T08:13:02;98682.94;;;20.36;35.22
40850;BME280;26571;41.610;25.380;2023-02-19T08:15:45;98695.84;;;20.21;36.40
40850;BME280;26571;41.610;25.380;2023-02-19T08:18:11;98684.38;;;19.46;37.54
40850;BME280;26571;41.610;25.380;2023-02-19T08:20:37;98690.97;;;18.73;38.78
40850;BME280;26571;41.610;25.380;2023-02-19T08:23:03;98694.84;;;18.13;40.66
40850;BME280;26571;41.610;25.380;2023-02-19T08:25:29;98695.75;;;18.51;39.90
40850;BME280;26571;41.610;25.380;2023-02-19T08:27:54;98685.53;;;18.42;39.37
40850;BME280;26571;41.610;25.380;2023-02-19T08:30:20;98678.91;;;17.66;40.55
40850;BME280;26571;41.610;25.380;2023-02-19T08:32:46;98694.25;;;17.71;40.24
40850;BME280;26571;41.610;25.380;2023-02-19T08:35:11;98694.63;;;17.28;41.14
40850;BME280;26571;41.610;25.380;2023-02-19T08:37:37;98683.97;;;17.01;41.92
40850;BME280;26571;41.610;25.380;2023-02-19T08:40:02;98680.91;;;17.11;41.51
40850;BME280;26571;41.610;25.380;2023-02-19T08:42:28;98665.75;;;17.05;42.34
40850;BME280;26571;41.610;25.380;2023-02-19T08:44:53;98678.84;;;17.20;41.40
40850;BME280;26571;41.610;25.380;2023-02-19T08:47:19;98677.03;;;17.27;41.08
40850;BME280;26571;41.610;25.380;2023-02-19T08:49:44;98672.72;;;17.19;41.88
40850;BME280;26571;41.610;25.380;2023-02-19T08:52:10;98672.16;;;17.77;41.10
40850;BME280;26571;41.610;25.380;2023-02-19T08:54:35;98671.72;;;17.93;39.96
40850;BME280;26571;41.610;25.380;2023-02-19T08:57:01;98666.91;;;18.28;39.37
40850;BME280;26571;41.610;25.380;2023-02-19T08:59:28;98665.44;;;18.46;39.46
40850;BME280;26571;41.610;25.380;2023-02-19T09:01:53;98628.06;;;18.52;39.05
40850;BME280;26571;41.610;25.380;2023-02-19T09:04:18;98677.63;;;18.80;38.47
40850;BME280;26571;41.610;25.380;2023-02-19T09:06:44;98672.31;;;18.73;38.52
40850;BME280;26571;41.610;25.380;2023-02-19T09:09:09;98667.91;;;18.41;38.81
40850;BME280;26571;41.610;25.380;2023-02-19T09:11:38;98670.31;;;18.49;38.75
40850;BME280;26571;41.610;25.380;2023-02-19T09:14:03;98678.22;;;18.82;38.74
40850;BME280;26571;41.610;25.380;2023-02-19T09:16:32;98670.56;;;19.24;38.15
40850;BME280;26571;41.610;25.380;2023-02-19T09:18:57;98659.63;;;19.32;37.29
40850;BME280;26571;41.610;25.380;2023-02-19T09:21:23;98659.97;;;18.79;37.65
40850;BME280;26571;41.610;25.380;2023-02-19T09:23:48;98643.66;;;18.55;38.20
40850;BME280;26571;41.610;25.380;2023-02-19T09:26:13;98654.50;;;18.54;38.14
40850;BME280;26571;41.610;25.380;2023-02-19T09:28:39;98645.41;;;18.81;39.77
40850;BME280;26571;41.610;25.380;2023-02-19T09:31:14;98636.16;;;19.41;37.72
40850;BME280;26571;41.610;25.380;2023-02-19T09:33:45;98640.78;;;19.27;36.77
40850;BME280;26571;41.610;25.380;2023-02-19T09:36:11;98624.84;;;19.14;37.37
40850;BME280;26571;41.610;25.380;2023-02-19T09:38:37;98623.22;;;19.37;36.82
40850;BME280;26571;41.610;25.380;2023-02-19T09:41:12;98617.19;;;19.24;37.33
40850;BME280;26571;41.610;25.380;2023-02-19T09:43:38;98622.09;;;19.77;37.31
40850;BME280;26571;41.610;25.380;2023-02-19T09:48:47;98609.50;;;19.34;36.78
40850;BME280;26571;41.610;25.380;2023-02-19T09:51:15;98597.97;;;19.40;36.58
40850;BME280;26571;41.610;25.380;2023-02-19T09:53:45;98621.94;;;19.47;36.54
40850;BME280;26571;41.610;25.380;2023-02-19T09:56:12;98623.72;;;19.78;35.49
40850;BME280;26571;41.610;25.380;2023-02-19T09:58:46;98627.75;;;20.05;35.40
40850;BME280;26571;41.610;25.380;2023-02-19T10:01:13;98610.22;;;19.91;35.50
40850;BME280;26571;41.610;25.380;2023-02-19T10:03:42;98587.66;;;19.87;35.45
40850;BME280;26571;41.610;25.380;2023-02-19T10:08:38;98589.72;;;20.03;35.05
40850;BME280;26571;41.610;25.380;2023-02-19T10:11:04;98592.97;;;20.24;34.77
40850;BME280;26571;41.610;25.380;2023-02-19T10:13:34;98587.25;;;20.57;34.67
40850;BME280;26571;41.610;25.380;2023-02-19T10:16:03;98594.06;;;20.83;33.52
40850;BME280;26571;41.610;25.380;2023-02-19T10:18:37;98585.34;;;20.76;33.75
40850;BME280;26571;41.610;25.380;2023-02-19T10:21:04;98574.50;;;20.71;33.79
40850;BME280;26571;41.610;25.380;2023-02-19T10:23:30;98569.19;;;20.52;33.73
40850;BME280;26571;41.610;25.380;2023-02-19T10:25:57;98569.91;;;20.29;34.11
40850;BME280;26571;41.610;25.380;2023-02-19T10:28:28;98568.00;;;20.48;33.98
40850;BME280;26571;41.610;25.380;2023-02-19T10:30:57;98557.09;;;20.50;33.61
40850;BME280;26571;41.610;25.380;2023-02-19T10:33:23;98548.06;;;20.62;33.34
40850;BME280;26571;41.610;25.380;2023-02-19T10:35:50;98547.94;;;20.57;33.91
40850;BME280;26571;41.610;25.380;2023-02-19T10:38:17;98517.00;;;20.61;33.53
40850;BME280;26571;41.610;25.380;2023-02-19T10:40:45;98534.56;;;20.99;33.04
40850;BME280;26571;41.610;25.380;2023-02-19T10:43:29;98523.38;;;20.90;32.07
40850;BME280;26571;41.610;25.380;2023-02-19T10:46:02;98534.94;;;20.73;31.81
40850;BME280;26571;41.610;25.380;2023-02-19T10:48:36;98511.59;;;20.91;30.92
40850;BME280;26571;41.610;25.380;2023-02-19T10:51:06;98512.44;;;21.27;31.65
40850;BME280;26571;41.610;25.380;2023-02-19T10:53:40;98515.34;;;21.26;29.99
40850;BME280;26571;41.610;25.380;2023-02-19T10:56:22;98504.63;;;21.26;30.38
40850;BME280;26571;41.610;25.380;2023-02-19T10:58:48;98496.84;;;21.24;29.78
40850;BME280;26571;41.610;25.380;2023-02-19T11:01:18;98500.09;;;21.26;30.92
40850;BME280;26571;41.610;25.380;2023-02-19T11:03:48;98501.84;;;21.09;30.29
40850;BME280;26571;41.610;25.380;2023-02-19T11:06:15;98498.94;;;21.10;30.26
40850;BME280;26571;41.610;25.380;2023-02-19T11:08:55;98493.19;;;20.83;30.74
40850;BME280;26571;41.610;25.380;2023-02-19T11:13:49;98479.00;;;20.29;31.66
40850;BME280;26571;41.610;25.380;2023-02-19T11:16:15;98479.47;;;20.38;31.95
40850;BME280;26571;41.610;25.380;2023-02-19T11:18:41;98474.00;;;20.33;31.84
40850;BME280;26571;41.610;25.380;2023-02-19T11:21:23;98475.91;;;20.44;32.46
40850;BME280;26571;41.610;25.380;2023-02-19T11:23:53;98471.53;;;20.61;31.45
40850;BME280;26571;41.610;25.380;2023-02-19T11:26:20;98468.63;;;20.63;31.72
40850;BME280;26571;41.610;25.380;2023-02-19T11:28:58;98462.25;;;20.64;32.24
40850;BME280;26571;41.610;25.380;2023-02-19T11:31:28;98452.94;;;20.67;32.53
40850;BME280;26571;41.610;25.380;2023-02-19T11:38:46;98453.31;;;20.70;33.08
40850;BME280;26571;41.610;25.380;2023-02-19T11:41:24;98444.66;;;20.56;31.98
40850;BME280;26571;41.610;25.380;2023-02-19T11:46:58;98436.41;;;20.58;32.12
40850;BME280;26571;41.610;25.380;2023-02-19T11:49:57;98431.75;;;20.53;31.76
40850;BME280;26571;41.610;25.380;2023-02-19T11:58:23;98426.28;;;20.06;33.56
40850;BME280;26571;41.610;25.380;2023-02-19T12:12:28;98399.88;;;20.40;34.04
40850;BME280;26571;41.610;25.380;2023-02-19T12:15:25;98403.38;;;20.52;33.48
40850;BME280;26571;41.610;25.380;2023-02-19T12:26:04;98393.84;;;20.56;32.08
40850;BME280;26571;41.610;25.380;2023-02-19T12:31:33;98390.66;;;20.36;32.66
40850;BME280;26571;41.610;25.380;2023-02-19T12:34:17;98399.25;;;20.26;32.51
40850;BME280;26571;41.610;25.380;2023-02-19T12:39:49;98380.28;;;20.04;33.27
40850;BME280;26571;41.610;25.380;2023-02-19T12:45:07;98386.38;;;20.35;34.05
40850;BME280;26571;41.610;25.380;2023-02-19T12:47:41;98361.25;;;20.36;34.27
40850;BME280;26571;41.610;25.380;2023-02-19T12:50:23;98373.56;;;20.37;31.76
40850;BME280;26571;41.610;25.380;2023-02-19T12:53:20;98375.09;;;20.45;31.90
40850;BME280;26571;41.610;25.380;2023-02-19T12:55:47;98355.31;;;20.22;32.44
40850;BME280;26571;41.610;25.380;2023-02-19T12:58:27;98380.03;;;20.18;33.19
40850;BME280;26571;41.610;25.380;2023-02-19T13:00:55;98363.06;;;20.00;32.74
40850;BME280;26571;41.610;25.380;2023-02-19T13:06:44;98376.59;;;20.29;33.02
40850;BME280;26571;41.610;25.380;2023-02-19T13:09:35;98369.97;;;20.20;33.12
40850;BME280;26571;41.610;25.380;2023-02-19T13:12:07;98365.63;;;20.19;33.26
40850;BME280;26571;41.610;25.380;2023-02-19T13:14:42;98355.06;;;20.12;33.39
40850;BME280;26571;41.610;25.380;2023-02-19T13:19:41;98353.06;;;20.07;34.05
40850;BME280;26571;41.610;25.380;2023-02-19T13:22:41;98346.75;;;19.90;34.13
40850;BME280;26571;41.610;25.380;2023-02-19T13:25:59;98341.94;;;19.50;34.20
40850;BME280;26571;41.610;25.380;2023-02-19T13:28:45;98340.75;;;19.46;35.05
40850;BME280;26571;41.610;25.380;2023-02-19T13:34:38;98336.06;;;19.30;35.08
40850;BME280;26571;41.610;25.380;2023-02-19T13:37:08;98328.63;;;19.32;35.26
40850;BME280;26571;41.610;25.380;2023-02-19T13:39:35;98327.44;;;19.28;35.90
40850;BME280;26571;41.610;25.380;2023-02-19T13:42:01;98328.78;;;19.19;36.92
40850;BME280;26571;41.610;25.380;2023-02-19T13:44:29;98330.63;;;19.18;37.08
40850;BME280;26571;41.610;25.380;2023-02-19T13:46:55;98323.91;;;19.16;36.99
40850;BME280;26571;41.610;25.380;2023-02-19T13:51:59;98290.88;;;18.80;37.75
40850;BME280;26571;41.610;25.380;2023-02-19T13:54:34;98325.41;;;19.11;37.70
40850;BME280;26571;41.610;25.380;2023-02-19T13:59:55;98319.78;;;19.01;37.17
40850;BME280;26571;41.610;25.380;2023-02-19T14:02:23;98320.34;;;19.03;38.11
40850;BME280;26571;41.610;25.380;2023-02-19T14:09:51;98294.72;;;18.84;38.32
40850;BME280;26571;41.610;25.380;2023-02-19T14:12:19;98313.91;;;18.93;38.04
40850;BME280;26571;41.610;25.380;2023-02-19T14:14:55;98292.47;;;18.63;38.37
40850;BME280;26571;41.610;25.380;2023-02-19T14:17:37;98314.22;;;18.59;38.40
40850;BME280;26571;41.610;25.380;2023-02-19T14:30:55;98311.94;;;17.95;40.08
40850;BME280;26571;41.610;25.380;2023-02-19T14:33:25;98304.25;;;17.80;40.42
40850;BME280;26571;41.610;25.380;2023-02-19T14:35:55;98310.03;;;17.70;40.22
40850;BME280;26571;41.610;25.380;2023-02-19T14:38:27;98284.38;;;17.44;40.92
40850;BME280;26571;41.610;25.380;2023-02-19T14:40:53;98306.47;;;17.51;41.56
40850;BME280;26571;41.610;25.380;2023-02-19T14:43:22;98302.59;;;17.47;41.66
40850;BME280;26571;41.610;25.380;2023-02-19T14:48:51;98300.91;;;17.21;42.01
40850;BME280;26571;41.610;25.380;2023-02-19T14:51:30;98298.00;;;17.23;42.18
40850;BME280;26571;41.610;25.380;2023-02-19T14:54:01;98301.91;;;17.20;42.48
40850;BME280;26571;41.610;25.380;2023-02-19T14:56:32;98298.88;;;17.17;42.42
40850;BME280;26571;41.610;25.380;2023-02-19T15:01:37;98287.13;;;16.86;43.15
40850;BME280;26571;41.610;25.380;2023-02-19T15:04:05;98311.69;;;16.82;43.66
40850;BME280;26571;41.610;25.380;2023-02-19T15:06:31;98304.94;;;16.79;44.13